WZZ4NJ EGGP-LRIA
Flight info
| Callsign | WZZ4NJ |
|---|---|
| Flight time | N/A |
| Altitude | 37000 |
| Route | NANTI DCT TUMTI DCT XW02F DCT BAGPA DCT PETIK DCT LUTET DCT KENIG DCT LAGAR DCT NOMIX DCT LADOB/K0795F370 DCT BANUV/N0428F370 DCT SCV DCT ARPIG DCT IA514 |
| Aircraft | A20N/M-SDE2E3FGHIRWXY/LB1 |
Departure
| Time | N/A |
|---|---|
| Airport | Liverpool John Lennon Airport (EGGP) |
Arrival
| Time | 2026-05-06 19:43 |
|---|---|
| Airport | Iaşi International Airport (LRIA) |
| Time | Latitude | Longitude | Altitude | Speed | Heading |
|---|---|---|---|---|---|
| 2026-05-06 19:14 | 48.68197 | 23.34752 | 36946 ft | 470 kts | 115° |
| 2026-05-06 19:15 | 48.64702 | 23.46225 | 36950 ft | 469 kts | 115° |
| 2026-05-06 19:15 | 48.59220 | 23.64113 | 36956 ft | 467 kts | 115° |
| 2026-05-06 19:16 | 48.53746 | 23.81850 | 36960 ft | 465 kts | 115° |
| 2026-05-06 19:16 | 48.48291 | 23.99397 | 36963 ft | 464 kts | 115° |
| 2026-05-06 19:17 | 48.42786 | 24.16982 | 36963 ft | 463 kts | 115° |
| 2026-05-06 19:17 | 48.37258 | 24.34522 | 36965 ft | 464 kts | 116° |
| 2026-05-06 19:18 | 48.31705 | 24.52014 | 36972 ft | 464 kts | 116° |
| 2026-05-06 19:18 | 48.25824 | 24.69274 | 36982 ft | 465 kts | 117° |
| 2026-05-06 19:19 | 48.19929 | 24.86536 | 36966 ft | 463 kts | 117° |
| 2026-05-06 19:19 | 48.14043 | 25.03672 | 36970 ft | 462 kts | 117° |
| 2026-05-06 19:20 | 48.08136 | 25.20755 | 36969 ft | 462 kts | 118° |
| 2026-05-06 19:20 | 48.02206 | 25.37793 | 36965 ft | 462 kts | 118° |
| 2026-05-06 19:21 | 47.96257 | 25.54773 | 36966 ft | 461 kts | 118° |
| 2026-05-06 19:21 | 47.93912 | 25.61437 | 36624 ft | 460 kts | 118° |
| 2026-05-06 19:21 | 47.92419 | 25.65669 | 35914 ft | 462 kts | 118° |
| 2026-05-06 19:21 | 47.90912 | 25.69935 | 35004 ft | 469 kts | 118° |
| 2026-05-06 19:22 | 47.89381 | 25.74263 | 33993 ft | 477 kts | 118° |
| 2026-05-06 19:22 | 47.87828 | 25.78645 | 33187 ft | 477 kts | 117° |
| 2026-05-06 19:22 | 47.86278 | 25.83012 | 32409 ft | 476 kts | 118° |
| 2026-05-06 19:22 | 47.84731 | 25.87360 | 31620 ft | 476 kts | 118° |
| 2026-05-06 19:23 | 47.83180 | 25.91716 | 30963 ft | 473 kts | 118° |
| 2026-05-06 19:23 | 47.81649 | 25.96007 | 30406 ft | 468 kts | 118° |
| 2026-05-06 19:23 | 47.80127 | 26.00267 | 29798 ft | 464 kts | 118° |
| 2026-05-06 19:23 | 47.78669 | 26.04342 | 29233 ft | 458 kts | 118° |
| 2026-05-06 19:24 | 47.77182 | 26.08491 | 28675 ft | 452 kts | 118° |
| 2026-05-06 19:24 | 47.75714 | 26.12580 | 28110 ft | 446 kts | 118° |
| 2026-05-06 19:24 | 47.74262 | 26.16617 | 27556 ft | 441 kts | 118° |
| 2026-05-06 19:24 | 47.72822 | 26.20616 | 27002 ft | 436 kts | 118° |
| 2026-05-06 19:25 | 47.71398 | 26.24566 | 26454 ft | 432 kts | 118° |
| 2026-05-06 19:25 | 47.69985 | 26.28475 | 25901 ft | 428 kts | 118° |
| 2026-05-06 19:25 | 47.68584 | 26.32350 | 25360 ft | 424 kts | 118° |
| 2026-05-06 19:25 | 47.67196 | 26.36187 | 24813 ft | 420 kts | 118° |
| 2026-05-06 19:26 | 47.65831 | 26.40003 | 24254 ft | 417 kts | 117° |
| 2026-05-06 19:26 | 47.64492 | 26.43812 | 23679 ft | 415 kts | 117° |
| 2026-05-06 19:26 | 47.63171 | 26.47585 | 23132 ft | 410 kts | 117° |
| 2026-05-06 19:26 | 47.61864 | 26.51307 | 22592 ft | 405 kts | 118° |
| 2026-05-06 19:27 | 47.60572 | 26.54976 | 22044 ft | 399 kts | 118° |
| 2026-05-06 19:27 | 47.59288 | 26.58608 | 21532 ft | 395 kts | 118° |
| 2026-05-06 19:27 | 47.58020 | 26.62188 | 20994 ft | 390 kts | 118° |
| 2026-05-06 19:27 | 47.56764 | 26.65727 | 20474 ft | 386 kts | 118° |
| 2026-05-06 19:28 | 47.55518 | 26.69232 | 19946 ft | 383 kts | 118° |
| 2026-05-06 19:28 | 47.54284 | 26.72701 | 19433 ft | 379 kts | 118° |
| 2026-05-06 19:28 | 47.53057 | 26.76144 | 18916 ft | 376 kts | 118° |
| 2026-05-06 19:28 | 47.51841 | 26.79555 | 18379 ft | 375 kts | 118° |
| 2026-05-06 19:29 | 47.50645 | 26.82902 | 17856 ft | 371 kts | 118° |
| 2026-05-06 19:29 | 47.49447 | 26.86249 | 17349 ft | 367 kts | 118° |
| 2026-05-06 19:29 | 47.48259 | 26.89566 | 16831 ft | 363 kts | 118° |
| 2026-05-06 19:29 | 47.47085 | 26.92841 | 16331 ft | 359 kts | 118° |
| 2026-05-06 19:30 | 47.45917 | 26.96091 | 15833 ft | 356 kts | 118° |
| 2026-05-06 19:30 | 47.44760 | 26.99310 | 15334 ft | 353 kts | 118° |
| 2026-05-06 19:30 | 47.43612 | 27.02496 | 14846 ft | 351 kts | 118° |
| 2026-05-06 19:30 | 47.42476 | 27.05648 | 14354 ft | 348 kts | 118° |
| 2026-05-06 19:31 | 47.41340 | 27.08796 | 13869 ft | 346 kts | 118° |
| 2026-05-06 19:31 | 47.40209 | 27.11929 | 13351 ft | 343 kts | 118° |
| 2026-05-06 19:31 | 47.37980 | 27.18085 | 12402 ft | 337 kts | 118° |
| 2026-05-06 19:32 | 47.36880 | 27.21118 | 11931 ft | 334 kts | 117° |
| 2026-05-06 19:32 | 47.35788 | 27.24124 | 11480 ft | 331 kts | 117° |
| 2026-05-06 19:32 | 47.34696 | 27.27113 | 11017 ft | 330 kts | 119° |
| 2026-05-06 19:32 | 47.33358 | 27.29838 | 10560 ft | 329 kts | 132° |
| 2026-05-06 19:33 | 47.31653 | 27.32038 | 10308 ft | 321 kts | 145° |
| 2026-05-06 19:33 | 47.29802 | 27.33753 | 10184 ft | 308 kts | 147° |
| 2026-05-06 19:33 | 47.28006 | 27.35417 | 9905 ft | 302 kts | 147° |
| 2026-05-06 19:33 | 47.26260 | 27.37049 | 9775 ft | 292 kts | 147° |
| 2026-05-06 19:34 | 47.24551 | 27.38649 | 9553 ft | 293 kts | 147° |
| 2026-05-06 19:34 | 47.22820 | 27.40267 | 9177 ft | 296 kts | 147° |
| 2026-05-06 19:34 | 47.21078 | 27.41889 | 8784 ft | 296 kts | 147° |
| 2026-05-06 19:34 | 47.19341 | 27.43503 | 8414 ft | 293 kts | 147° |
| 2026-05-06 19:35 | 47.17624 | 27.45099 | 8027 ft | 291 kts | 148° |
| 2026-05-06 19:35 | 47.15916 | 27.46686 | 7645 ft | 290 kts | 148° |
| 2026-05-06 19:35 | 47.14217 | 27.48262 | 7261 ft | 288 kts | 148° |
| 2026-05-06 19:35 | 47.12530 | 27.49827 | 6890 ft | 286 kts | 148° |
| 2026-05-06 19:36 | 47.10876 | 27.51360 | 6631 ft | 279 kts | 148° |
| 2026-05-06 19:36 | 47.09230 | 27.52852 | 6268 ft | 276 kts | 149° |
| 2026-05-06 19:36 | 47.07598 | 27.54294 | 5924 ft | 272 kts | 150° |
| 2026-05-06 19:36 | 47.05998 | 27.55696 | 5558 ft | 270 kts | 150° |
| 2026-05-06 19:37 | 47.04376 | 27.57121 | 5197 ft | 267 kts | 150° |
| 2026-05-06 19:37 | 47.02796 | 27.58512 | 4830 ft | 264 kts | 149° |
| 2026-05-06 19:37 | 47.01218 | 27.59905 | 4432 ft | 264 kts | 149° |
| 2026-05-06 19:37 | 47.00189 | 27.60832 | 4218 ft | 262 kts | 146° |
| 2026-05-06 19:38 | 46.98785 | 27.63564 | 3901 ft | 253 kts | 107° |
| 2026-05-06 19:38 | 46.98709 | 27.66215 | 3795 ft | 274 kts | 81° |
| 2026-05-06 19:38 | 46.99448 | 27.68792 | 3743 ft | 274 kts | 62° |
| 2026-05-06 19:38 | 47.00450 | 27.71090 | 3625 ft | 260 kts | 59° |
| 2026-05-06 19:39 | 47.01537 | 27.73109 | 3475 ft | 247 kts | 41° |
| 2026-05-06 19:39 | 47.03029 | 27.74148 | 3327 ft | 234 kts | 8° |
| 2026-05-06 19:39 | 47.04580 | 27.73922 | 3186 ft | 219 kts | 335° |
| 2026-05-06 19:39 | 47.05844 | 27.72860 | 3145 ft | 200 kts | 326° |
| 2026-05-06 19:40 | 47.06994 | 27.71834 | 3035 ft | 187 kts | 327° |
| 2026-05-06 19:40 | 47.08058 | 27.70901 | 2803 ft | 172 kts | 326° |
| 2026-05-06 19:40 | 47.09097 | 27.70046 | 2324 ft | 171 kts | 326° |
| 2026-05-06 19:40 | 47.10156 | 27.69281 | 1838 ft | 167 kts | 322° |
| 2026-05-06 19:41 | 47.11150 | 27.68514 | 1623 ft | 158 kts | 319° |
| 2026-05-06 19:41 | 47.12060 | 27.67640 | 1492 ft | 153 kts | 314° |
| 2026-05-06 19:41 | 47.12911 | 27.66699 | 1390 ft | 153 kts | 315° |
| 2026-05-06 19:41 | 47.13784 | 27.65809 | 1163 ft | 156 kts | 321° |
| 2026-05-06 19:42 | 47.14659 | 27.65008 | 929 ft | 150 kts | 327° |
| 2026-05-06 19:42 | 47.15551 | 27.64254 | 634 ft | 148 kts | 328° |
| 2026-05-06 19:42 | 47.16430 | 27.63488 | 467 ft | 146 kts | 329° |
| 2026-05-06 19:42 | 47.17317 | 27.62729 | 368 ft | 148 kts | 325° |
| 2026-05-06 19:43 | 47.18075 | 27.62050 | 378 ft | 91 kts | 328° |
| 2026-05-06 19:43 | 47.18387 | 27.61774 | 392 ft | 34 kts | 327° |
| 2026-05-06 19:43 | 47.18590 | 27.61591 | 400 ft | 29 kts | 328° |
| 2026-05-06 19:43 | 47.18657 | 27.61531 | 403 ft | 10 kts | 329° |
| 2026-05-06 19:44 | 47.18718 | 27.61477 | 406 ft | 11 kts | 329° |
| 2026-05-06 19:44 | 47.18784 | 27.61418 | 408 ft | 11 kts | 329° |
| 2026-05-06 19:44 | 47.18858 | 27.61369 | 411 ft | 12 kts | 352° |
| 2026-05-06 19:44 | 47.18940 | 27.61346 | 414 ft | 12 kts | 327° |
| 2026-05-06 19:45 | 47.18942 | 27.61320 | 414 ft | 4 kts | 242° |
| 2026-05-06 19:45 | 47.18897 | 27.61323 | 413 ft | 10 kts | 143° |
| 2026-05-06 19:45 | 47.18819 | 27.61388 | 409 ft | 15 kts | 147° |
| 2026-05-06 19:45 | 47.18714 | 27.61481 | 406 ft | 20 kts | 149° |
| 2026-05-06 19:46 | 47.18586 | 27.61593 | 398 ft | 24 kts | 149° |
| 2026-05-06 19:46 | 47.18435 | 27.61730 | 394 ft | 27 kts | 148° |
| 2026-05-06 19:46 | 47.18266 | 27.61883 | 386 ft | 30 kts | 148° |
| 2026-05-06 19:46 | 47.18077 | 27.62047 | 378 ft | 33 kts | 148° |
| 2026-05-06 19:47 | 47.17921 | 27.62185 | 371 ft | 14 kts | 149° |
| 2026-05-06 19:47 | 47.17846 | 27.62180 | 373 ft | 12 kts | 232° |
| 2026-05-06 19:47 | 47.17806 | 27.62063 | 372 ft | 13 kts | 242° |
| 2026-05-06 19:47 | 47.17770 | 27.61959 | 373 ft | 9 kts | 244° |
| 2026-05-06 19:48 | 47.17743 | 27.61926 | 374 ft | 4 kts | 184° |
| 2026-05-06 19:48 | 47.17715 | 27.61937 | 374 ft | 5 kts | 155° |
| 2026-05-06 19:48 | 47.17687 | 27.61938 | 374 ft | 4 kts | 220° |
| 2026-05-06 19:48 | 47.17682 | 27.61901 | 374 ft | 5 kts | 271° |
| 2026-05-06 19:49 | 47.17683 | 27.61871 | 374 ft | 0 kts | 273° |
| 2026-05-06 19:49 | 47.17682 | 27.61883 | 374 ft | 0 kts | 274° |